Time;durP1;ratioP1;P1;durP2;ratioP2;P2;SDS_P1;SDS_P2;PMS_P1;PMS_P2;Temp;Humidity;BMP_temperature;BMP_pressure;BME280_temperature;BME280_humidity;BME280_pressure;Samples;Min_cycle;Max_cycle;Signal;HPM_P1;HPM_P2
2024/01/17 00:02:17;;;;;;;3.75;1.38;;;;;;;18.74;40.30;100139.84;4996934;28;100051;-82
2024/01/17 00:04:46;;;;;;;2.33;1.23;;;;;;;18.74;40.17;100139.84;4972280;28;97747;-82
2024/01/17 00:07:12;;;;;;;2.15;1.27;;;;;;;18.74;40.30;100131.06;5006101;28;97364;-82
2024/01/17 00:09:37;;;;;;;3.00;1.83;;;;;;;18.73;40.57;100121.41;4983816;28;97323;-82
2024/01/17 00:12:04;;;;;;;2.58;1.27;;;;;;;18.73;40.21;100114.34;4983412;28;125241;-82
2024/01/17 00:14:31;;;;;;;2.85;1.42;;;;;;;18.73;40.54;100111.69;4989054;28;97795;-82
2024/01/17 00:16:57;;;;;;;2.30;1.30;;;;;;;18.73;40.38;100108.19;4985611;28;97554;-81
2024/01/17 00:19:22;;;;;;;3.20;1.65;;;;;;;18.73;40.14;100101.13;4979005;28;96897;-82
2024/01/17 00:21:47;;;;;;;3.55;1.67;;;;;;;18.74;40.34;100099.38;4987925;28;97688;-82
2024/01/17 00:24:13;;;;;;;4.10;1.98;;;;;;;18.72;40.13;100096.78;4971314;28;96951;-82
2024/01/17 00:26:38;;;;;;;3.75;1.92;;;;;;;18.73;40.21;100093.19;5001790;28;96713;-82
2024/01/17 00:29:04;;;;;;;3.10;1.83;;;;;;;18.73;40.24;100089.72;4989534;28;97002;-82
2024/01/17 00:31:29;;;;;;;3.60;1.90;;;;;;;18.73;40.51;100085.28;4989016;28;100130;-82
2024/01/17 00:33:55;;;;;;;3.03;1.98;;;;;;;18.73;40.44;100081.78;4985609;28;100595;-82
2024/01/17 00:36:20;;;;;;;2.80;1.83;;;;;;;18.71;40.08;100076.53;4980442;28;96823;-82
2024/01/17 00:38:45;;;;;;;2.58;1.77;;;;;;;18.72;39.99;100078.28;4988762;28;97652;-82
2024/01/17 00:41:11;;;;;;;2.28;1.30;;;;;;;18.72;40.22;100072.16;4988872;28;112842;-82
2024/01/17 00:43:36;;;;;;;2.03;1.13;;;;;;;18.71;40.02;100063.34;4994566;28;129015;-82
2024/01/17 00:46:01;;;;;;;2.95;2.05;;;;;;;18.72;40.24;100058.94;4986485;28;116564;-82
2024/01/17 00:48:27;;;;;;;2.63;1.13;;;;;;;18.72;40.09;100048.38;4988668;28;97070;-82
2024/01/17 00:50:52;;;;;;;2.80;1.55;;;;;;;18.72;40.37;100045.72;4984762;28;96876;-82
2024/01/17 00:53:18;;;;;;;3.60;1.92;;;;;;;18.72;39.99;100046.59;4982431;28;121681;-82
2024/01/17 00:55:43;;;;;;;3.08;1.95;;;;;;;18.72;40.15;100040.44;5016220;28;96785;-81
2024/01/17 00:58:08;;;;;;;2.53;1.30;;;;;;;18.71;40.04;100033.44;4973661;28;97392;-82
2024/01/17 01:00:34;;;;;;;2.83;1.70;;;;;;;18.71;40.25;100029.00;5003425;28;98637;-82
2024/01/17 01:02:59;;;;;;;2.50;1.48;;;;;;;18.71;40.05;100021.06;4996775;28;126604;-82
2024/01/17 01:05:25;;;;;;;2.83;1.58;;;;;;;18.71;39.97;100022.88;4982606;28;96786;-82
2024/01/17 01:07:51;;;;;;;3.08;1.85;;;;;;;18.71;40.30;100012.28;4987744;28;96774;-82
2024/01/17 01:10:16;;;;;;;2.55;1.50;;;;;;;18.71;40.32;100013.16;4987622;28;100225;-81
2024/01/17 01:12:42;;;;;;;2.75;1.30;;;;;;;18.71;40.33;100004.38;4980483;28;97726;-82
2024/01/17 01:15:08;;;;;;;3.33;1.52;;;;;;;18.70;40.04;100003.50;4979435;28;97306;-82
2024/01/17 01:17:33;;;;;;;2.78;1.60;;;;;;;18.72;40.04;99995.53;5000328;28;97079;-82
2024/01/17 01:19:58;;;;;;;4.07;1.88;;;;;;;18.70;40.09;99992.94;4970794;28;100318;-82
2024/01/17 01:22:24;;;;;;;3.22;1.58;;;;;;;18.70;40.09;99986.78;4959042;28;108300;-82
2024/01/17 01:24:49;;;;;;;2.80;1.23;;;;;;;18.71;40.05;99996.44;4982040;28;115843;-81
2024/01/17 01:27:15;;;;;;;3.28;1.42;;;;;;;18.71;39.83;99999.09;5000653;28;97357;-81
2024/01/17 01:29:41;;;;;;;2.45;1.45;;;;;;;18.70;39.96;99989.44;4971851;28;99145;-82
2024/01/17 01:32:07;;;;;;;2.55;1.83;;;;;;;18.70;39.94;99990.31;4970909;28;97587;-82
2024/01/17 01:34:33;;;;;;;2.88;2.03;;;;;;;18.69;40.17;99991.22;4980884;28;96836;-82
2024/01/17 01:37:00;;;;;;;3.17;1.42;;;;;;;18.70;40.12;99994.72;4989048;28;96899;-82
2024/01/17 01:39:26;;;;;;;2.70;1.63;;;;;;;18.70;39.96;100000.00;5000255;28;97645;-82
2024/01/17 01:41:51;;;;;;;2.70;1.80;;;;;;;18.70;39.98;99992.94;4977796;28;98036;-82
2024/01/17 01:44:16;;;;;;;3.22;1.42;;;;;;;18.70;40.06;99987.66;5015018;27;96699;-81
2024/01/17 01:46:45;;;;;;;2.92;1.52;;;;;;;18.70;40.11;99982.38;4965926;28;96928;-82
2024/01/17 01:49:10;;;;;;;2.40;1.60;;;;;;;18.70;40.08;99981.50;4981231;28;97127;-82
2024/01/17 01:51:38;;;;;;;3.00;2.00;;;;;;;18.69;40.20;99970.09;4965954;28;99617;-81
2024/01/17 01:54:04;;;;;;;3.00;1.75;;;;;;;18.69;40.15;99972.72;4984312;28;98864;-81
2024/01/17 01:56:31;;;;;;;2.25;1.15;;;;;;;18.69;40.08;99970.09;4984907;28;97481;-81
2024/01/17 01:58:58;;;;;;;2.45;2.03;;;;;;;18.68;40.12;99965.72;4978198;28;98080;-82
2024/01/17 02:01:27;;;;;;;2.83;1.73;;;;;;;18.69;39.99;99963.94;4993242;28;98027;-81
2024/01/17 02:03:54;;;;;;;2.83;1.85;;;;;;;18.69;39.76;99959.50;4974332;28;96835;-82
2024/01/17 02:06:22;;;;;;;2.28;1.20;;;;;;;18.69;39.93;99953.38;4974036;28;96726;-82
2024/01/17 02:08:50;;;;;;;3.05;1.98;;;;;;;18.69;39.96;99950.75;4979706;28;97225;-81
2024/01/17 02:11:17;;;;;;;2.58;1.27;;;;;;;18.68;40.02;99941.97;4970235;28;97314;-81
2024/01/17 02:13:43;;;;;;;2.33;1.23;;;;;;;18.68;39.67;99936.69;4990197;28;96809;-81
2024/01/17 02:16:09;;;;;;;2.45;1.17;;;;;;;18.68;39.77;99928.75;4991251;28;96880;-82
2024/01/17 02:18:34;;;;;;;2.83;1.50;;;;;;;18.67;40.03;99929.66;5003865;28;100416;-81
2024/01/17 02:21:00;;;;;;;2.95;1.33;;;;;;;18.69;40.19;99934.88;4969614;28;102758;-81
2024/01/17 02:23:26;;;;;;;2.90;1.45;;;;;;;18.67;39.92;99931.44;4981596;28;96819;-81
2024/01/17 02:25:53;;;;;;;2.35;1.63;;;;;;;18.68;39.78;99919.94;4978863;28;97242;-82
2024/01/17 02:28:18;;;;;;;1.70;1.02;;;;;;;18.68;40.04;99915.53;4982185;28;99528;-82
2024/01/17 02:30:44;;;;;;;2.45;1.75;;;;;;;18.68;39.71;99917.31;4983511;28;97362;-82
2024/01/17 02:33:12;;;;;;;4.10;2.03;;;;;;;18.68;39.90;99912.91;4987718;28;96840;-82
2024/01/17 02:35:37;;;;;;;2.70;1.33;;;;;;;18.67;40.06;99905.88;4987012;28;97427;-81
2024/01/17 02:38:03;;;;;;;2.78;2.00;;;;;;;18.67;39.79;99899.75;4984038;28;97909;-81
2024/01/17 02:40:28;;;;;;;3.30;2.13;;;;;;;18.68;39.63;99899.69;4982911;28;97477;-81
2024/01/17 02:42:54;;;;;;;3.80;1.20;;;;;;;18.66;39.76;99893.59;5001520;28;117260;-82
2024/01/17 02:45:20;;;;;;;3.03;1.30;;;;;;;18.67;39.77;99882.13;4978239;28;96935;-82
2024/01/17 02:47:45;;;;;;;2.83;1.73;;;;;;;18.66;39.80;99877.72;4984025;28;96614;-82
2024/01/17 02:50:14;;;;;;;3.50;1.83;;;;;;;18.67;39.75;99875.97;5008206;28;122715;-82
2024/01/17 02:52:40;;;;;;;;;;;;;;;18.60;40.09;99873.53;5006382;28;96848;-82
2024/01/17 02:55:06;;;;;;;2.88;1.75;;;;;;;18.61;39.75;99859.44;4989370;28;96783;-82
2024/01/17 02:57:32;;;;;;;2.80;1.02;;;;;;;18.63;39.99;99849.66;5005358;28;99873;-81
2024/01/17 02:59:57;;;;;;;3.17;1.15;;;;;;;18.63;39.87;99860.22;4970514;28;127743;-81
2024/01/17 03:02:22;;;;;;;3.80;1.67;;;;;;;18.63;39.94;99851.47;4984709;28;117129;-81
2024/01/17 03:04:50;;;;;;;3.08;1.40;;;;;;;18.63;39.78;99849.66;5011797;28;99287;-82
2024/01/17 03:07:15;;;;;;;2.25;1.17;;;;;;;18.65;39.99;99855.75;4983847;28;97764;-82
2024/01/17 03:09:41;;;;;;;3.53;1.98;;;;;;;18.64;39.86;99851.41;4979363;28;97186;-81
2024/01/17 03:12:07;;;;;;;2.50;1.58;;;;;;;18.64;39.70;99839.94;4982548;28;96826;-81
2024/01/17 03:14:32;;;;;;;2.85;1.60;;;;;;;18.65;39.69;99839.06;4976501;28;96852;-81
2024/01/17 03:16:58;;;;;;;1.88;1.23;;;;;;;18.65;39.53;99828.50;4987282;28;126799;-81
2024/01/17 03:19:24;;;;;;;2.55;1.23;;;;;;;18.64;39.40;99822.34;4980829;28;96837;-81
2024/01/17 03:21:50;;;;;;;2.85;1.75;;;;;;;18.64;39.60;99818.81;4989773;28;97759;-81
2024/01/17 03:24:16;;;;;;;3.03;1.30;;;;;;;18.65;39.72;99817.91;5014055;28;96886;-81
2024/01/17 03:26:41;;;;;;;1.85;1.05;;;;;;;18.64;39.40;99811.78;5005516;28;96841;-81
2024/01/17 03:29:06;;;;;;;2.50;1.42;;;;;;;18.65;39.66;99813.50;4981354;28;97390;-81
2024/01/17 03:31:32;;;;;;;3.42;1.38;;;;;;;18.65;39.75;99807.34;5000092;28;96737;-81
2024/01/17 03:33:57;;;;;;;3.17;1.58;;;;;;;18.64;39.87;99806.50;4978976;28;97409;-81
2024/01/17 03:36:23;;;;;;;3.17;1.45;;;;;;;18.64;39.64;99800.34;4977099;28;126737;-81
2024/01/17 03:38:48;;;;;;;2.28;1.52;;;;;;;18.64;39.40;99795.94;4987715;28;127292;-82
2024/01/17 03:41:13;;;;;;;2.00;1.25;;;;;;;18.63;39.74;99790.72;4986205;28;102279;-81
2024/01/17 03:43:39;;;;;;;2.65;1.42;;;;;;;18.63;39.81;99782.78;4974147;28;96842;-82
2024/01/17 03:46:04;;;;;;;2.55;1.42;;;;;;;18.63;39.46;99778.34;4986784;28;116939;-81
2024/01/17 03:48:29;;;;;;;2.85;1.88;;;;;;;18.64;39.67;99773.94;4972119;28;97432;-81
2024/01/17 03:50:55;;;;;;;3.33;1.92;;;;;;;18.64;39.53;99760.72;4986422;28;97494;-81
2024/01/17 03:53:20;;;;;;;2.40;1.30;;;;;;;18.63;39.42;99757.22;5000261;28;97302;-81
2024/01/17 03:55:45;;;;;;;2.47;1.23;;;;;;;18.62;39.59;99747.56;4986933;28;112508;-82
2024/01/17 03:58:11;;;;;;;2.47;1.40;;;;;;;18.63;39.77;99741.38;4969020;28;127261;-81
2024/01/17 04:00:36;;;;;;;3.78;1.55;;;;;;;18.63;39.53;99738.75;4979946;28;103755;-81
2024/01/17 04:03:02;;;;;;;2.05;1.70;;;;;;;18.62;39.66;99734.38;5016876;28;117701;-81
2024/01/17 04:05:27;;;;;;;4.03;2.08;;;;;;;18.63;39.39;99730.81;4999278;28;99576;-82
2024/01/17 04:07:52;;;;;;;2.92;1.58;;;;;;;18.62;39.61;99729.09;5009024;27;117059;-81
2024/01/17 04:10:18;;;;;;;3.08;1.83;;;;;;;18.62;39.58;99723.81;4982940;28;96875;-81
2024/01/17 04:12:43;;;;;;;3.05;1.75;;;;;;;18.63;39.29;99719.41;5008731;27;97001;-82
2024/01/17 04:15:08;;;;;;;2.75;1.50;;;;;;;18.63;39.40;99708.84;4977724;28;127524;-82
2024/01/17 04:17:35;;;;;;;1.92;0.95;;;;;;;18.63;39.12;99700.91;4985914;28;113509;-81
2024/01/17 04:20:02;;;;;;;2.92;2.03;;;;;;;18.63;39.59;99700.91;4976149;28;97013;-81
2024/01/17 04:22:27;;;;;;;2.28;1.30;;;;;;;18.62;39.62;99680.69;4974266;28;96785;-81
2024/01/17 04:24:53;;;;;;;2.63;1.50;;;;;;;18.63;39.21;99669.22;4960195;28;1149528;-82
2024/01/17 04:27:18;;;;;;;2.45;1.70;;;;;;;18.63;39.37;99664.78;4971391;28;121353;-82
2024/01/17 04:29:44;;;;;;;2.25;1.50;;;;;;;18.63;39.32;99659.50;4983277;28;97289;-81
2024/01/17 04:32:09;;;;;;;2.63;1.63;;;;;;;18.62;39.47;99651.66;4973516;28;97116;-81
2024/01/17 04:34:35;;;;;;;3.40;2.00;;;;;;;18.63;39.42;99651.59;4983123;28;98200;-81
2024/01/17 04:37:01;;;;;;;2.75;1.52;;;;;;;18.63;39.30;99648.94;4970196;28;114478;-81
2024/01/17 04:39:26;;;;;;;2.33;1.75;;;;;;;18.62;39.13;99628.72;4973891;28;96666;-82
2024/01/17 04:41:52;;;;;;;2.50;1.65;;;;;;;18.63;39.25;99632.25;4961645;28;116754;-81
2024/01/17 04:44:17;;;;;;;3.10;1.67;;;;;;;18.62;39.07;99618.16;5014151;27;96722;-81
2024/01/17 04:46:43;;;;;;;2.60;1.42;;;;;;;18.62;39.31;99612.88;4979127;28;99501;-81
2024/01/17 04:49:09;;;;;;;2.45;1.80;;;;;;;18.62;39.24;99609.38;4970562;28;96890;-81
2024/01/17 04:51:34;;;;;;;2.28;1.02;;;;;;;18.62;39.50;99604.97;4977756;28;97920;-81
2024/01/17 04:53:59;;;;;;;2.08;1.17;;;;;;;18.62;39.25;99610.25;4975023;28;125961;-81
2024/01/17 04:56:25;;;;;;;2.72;1.27;;;;;;;18.62;39.26;99588.25;5012852;27;99285;-81
2024/01/17 04:58:51;;;;;;;3.30;1.63;;;;;;;18.62;39.17;99593.53;4995822;28;96743;-81
2024/01/17 05:01:16;;;;;;;3.13;1.25;;;;;;;18.62;39.18;99589.13;4978427;28;97114;-82
2024/01/17 05:03:42;;;;;;;2.20;1.33;;;;;;;18.61;39.17;99597.13;4994360;28;126997;-81
2024/01/17 05:06:08;;;;;;;2.60;1.48;;;;;;;18.62;39.23;99596.19;4973374;28;97774;-81
2024/01/17 05:08:33;;;;;;;2.15;1.00;;;;;;;18.61;39.42;99597.97;4989689;28;97410;-81
2024/01/17 05:10:58;;;;;;;2.35;1.40;;;;;;;18.62;39.33;99590.91;4962825;28;117315;-81
2024/01/17 05:13:24;;;;;;;3.35;1.73;;;;;;;18.61;39.31;99586.56;4982925;28;97165;-81
2024/01/17 05:15:50;;;;;;;2.67;1.27;;;;;;;18.61;39.37;99583.91;4982660;28;97074;-81
2024/01/17 05:18:15;;;;;;;3.28;1.27;;;;;;;18.60;39.11;99572.47;4985108;28;96879;-81
2024/01/17 05:20:41;;;;;;;1.88;1.02;;;;;;;18.61;39.51;99563.66;5003332;27;99187;-81
2024/01/17 05:23:06;;;;;;;2.17;0.93;;;;;;;18.61;39.41;99561.00;4984286;28;100355;-82
2024/01/17 05:25:32;;;;;;;2.85;1.50;;;;;;;18.60;39.34;99567.19;4986728;28;97236;-81
2024/01/17 05:27:57;;;;;;;3.03;1.35;;;;;;;18.61;39.27;99562.78;4968971;28;96801;-81
2024/01/17 05:30:24;;;;;;;1.90;1.25;;;;;;;18.60;39.22;99559.28;4990743;28;99523;-81
2024/01/17 05:32:50;;;;;;;2.40;1.15;;;;;;;18.61;39.35;99562.78;4984320;28;99798;-81
2024/01/17 05:35:16;;;;;;;2.92;1.83;;;;;;;18.60;39.35;99556.63;4995176;28;96806;-81
2024/01/17 05:37:42;;;;;;;2.05;1.10;;;;;;;18.61;38.88;99547.81;4988274;28;97408;-81
2024/01/17 05:40:09;;;;;;;2.10;1.50;;;;;;;18.61;39.05;99531.09;4982676;28;96942;-81
2024/01/17 05:42:36;;;;;;;2.55;1.65;;;;;;;18.61;39.16;99528.47;4976370;28;96706;-81
2024/01/17 05:45:02;;;;;;;2.33;1.40;;;;;;;18.60;38.99;99534.66;4981147;28;96710;-81
2024/01/17 05:47:28;;;;;;;2.17;1.10;;;;;;;18.60;39.06;99522.31;4982460;28;97658;-81
2024/01/17 05:49:53;;;;;;;2.25;1.10;;;;;;;18.61;39.42;99523.19;4994625;28;116803;-81
2024/01/17 05:52:19;;;;;;;1.73;1.15;;;;;;;18.59;39.00;99515.31;4966320;28;98116;-81
2024/01/17 05:54:44;;;;;;;3.90;1.70;;;;;;;18.60;38.65;99510.88;4979659;28;127373;-81
2024/01/17 05:57:09;;;;;;;1.85;1.38;;;;;;;18.59;39.04;99507.41;4983896;28;116761;-82
2024/01/17 05:59:35;;;;;;;2.08;1.10;;;;;;;18.60;39.17;99502.97;4970044;28;104192;-81
2024/01/17 06:02:00;;;;;;;2.95;1.80;;;;;;;18.59;39.17;99501.22;4986445;28;97714;-82
2024/01/17 06:04:25;;;;;;;1.73;0.90;;;;;;;18.60;39.34;99489.75;4978097;28;120134;-82
2024/01/17 06:06:51;;;;;;;2.00;1.25;;;;;;;18.58;38.77;99481.91;4967962;28;115634;-81
2024/01/17 06:09:17;;;;;;;2.35;1.70;;;;;;;18.58;39.14;99473.13;4972571;28;116040;-81
2024/01/17 06:11:43;;;;;;;2.83;1.77;;;;;;;18.58;39.19;99481.91;4979682;28;100825;-81
2024/01/17 06:14:08;;;;;;;3.22;1.05;;;;;;;18.59;38.93;99473.06;4985318;28;127992;-81
2024/01/17 06:16:33;;;;;;;2.60;1.70;;;;;;;18.58;38.91;99470.50;4974719;28;110507;-81
2024/01/17 06:18:59;;;;;;;1.90;0.95;;;;;;;18.59;38.85;99474.81;4966499;28;96832;-82
2024/01/17 06:21:25;;;;;;;2.65;1.13;;;;;;;18.59;39.00;99469.53;5001492;27;98550;-81
2024/01/17 06:23:51;;;;;;;2.45;1.15;;;;;;;18.58;38.94;99465.22;4966516;28;99781;-81
2024/01/17 06:26:17;;;;;;;2.67;1.58;;;;;;;18.59;39.06;99469.53;4985188;28;97313;-81
2024/01/17 06:28:42;;;;;;;2.65;0.98;;;;;;;18.58;38.65;99468.69;4984400;28;96724;-81
2024/01/17 06:31:08;;;;;;;2.33;1.42;;;;;;;18.58;39.13;99463.41;4988348;28;96953;-82
2024/01/17 06:33:33;;;;;;;2.30;1.02;;;;;;;18.59;39.01;99464.25;4969783;28;99479;-82
2024/01/17 06:35:59;;;;;;;2.38;1.90;;;;;;;18.58;38.85;99459.94;4977074;28;97188;-81
2024/01/17 06:38:24;;;;;;;2.72;1.80;;;;;;;18.58;38.99;99457.28;4969209;28;96827;-81
2024/01/17 06:40:50;;;;;;;2.80;1.35;;;;;;;18.58;39.00;99454.66;4980923;28;97725;-81
2024/01/17 06:43:16;;;;;;;3.38;1.33;;;;;;;18.57;39.12;99445.88;4980651;28;97036;-81
2024/01/17 06:45:42;;;;;;;2.47;1.42;;;;;;;18.59;38.73;99448.41;4981389;28;96877;-81
2024/01/17 06:48:07;;;;;;;2.75;1.02;;;;;;;18.58;39.05;99447.56;4980904;28;96896;-81
2024/01/17 06:50:33;;;;;;;2.53;1.90;;;;;;;18.58;38.86;99444.94;4984305;28;98435;-82
2024/01/17 06:52:58;;;;;;;2.15;1.50;;;;;;;18.57;38.91;99429.16;4980748;28;97600;-81
2024/01/17 06:55:23;;;;;;;2.10;1.50;;;;;;;18.57;38.65;99437.97;4984584;28;117481;-81
2024/01/17 06:57:49;;;;;;;2.70;1.13;;;;;;;18.58;39.07;99438.81;4981450;28;96943;-81
2024/01/17 07:00:15;;;;;;;2.55;1.05;;;;;;;18.58;39.10;99436.16;4981042;28;128927;-81
2024/01/17 07:02:40;;;;;;;1.90;0.95;;;;;;;18.58;39.00;99428.25;4981783;28;98087;-81
2024/01/17 07:05:06;;;;;;;2.20;1.35;;;;;;;18.57;39.06;99430.03;4986062;28;96834;-81
2024/01/17 07:07:32;;;;;;;1.95;1.60;;;;;;;18.58;38.91;99420.31;4980439;28;96684;-81
2024/01/17 07:09:57;;;;;;;2.47;1.15;;;;;;;18.55;38.94;99405.44;5002735;28;97753;-83
2024/01/17 07:12:23;;;;;;;2.30;1.67;;;;;;;18.57;38.57;99413.31;4977134;28;97628;-81
2024/01/17 07:14:49;;;;;;;1.88;1.13;;;;;;;18.57;38.93;99397.47;4978849;28;97430;-81
2024/01/17 07:17:15;;;;;;;2.55;1.35;;;;;;;18.57;38.68;99402.75;4968591;28;96886;-82
2024/01/17 07:19:40;;;;;;;2.50;1.15;;;;;;;18.57;38.67;99386.91;4987618;28;99744;-81
2024/01/17 07:22:06;;;;;;;2.13;1.08;;;;;;;18.57;38.83;99382.50;4980402;28;97071;-82
2024/01/17 07:24:32;;;;;;;1.98;1.23;;;;;;;18.58;38.80;99380.72;4980843;28;97076;-81
2024/01/17 07:26:57;;;;;;;1.88;1.10;;;;;;;18.57;38.93;99386.91;4971052;28;96943;-82
2024/01/17 07:29:23;;;;;;;2.65;1.50;;;;;;;18.56;39.07;99375.50;4990242;28;115335;-81
2024/01/17 07:31:50;;;;;;;3.20;1.20;;;;;;;18.58;38.78;99367.50;4969329;28;100236;-81
2024/01/17 07:34:15;;;;;;;1.77;1.05;;;;;;;18.57;38.94;99363.13;4983007;28;97372;-81
2024/01/17 07:36:40;;;;;;;2.30;1.13;;;;;;;18.57;38.57;99363.13;4983159;28;97694;-82
2024/01/17 07:39:06;;;;;;;2.20;1.50;;;;;;;18.57;38.87;99349.94;4984896;28;126229;-81
2024/01/17 07:41:31;;;;;;;3.05;1.63;;;;;;;18.56;38.88;99349.09;4983803;28;97515;-81
2024/01/17 07:43:56;;;;;;;3.50;1.70;;;;;;;18.57;38.55;99342.00;4984869;28;97586;-82
2024/01/17 07:46:22;;;;;;;1.90;1.40;;;;;;;18.57;38.83;99336.72;4983901;28;114533;-81
2024/01/17 07:48:47;;;;;;;2.22;1.40;;;;;;;18.55;38.80;99331.50;4979815;28;125564;-81
2024/01/17 07:51:15;;;;;;;2.25;1.33;;;;;;;18.56;38.58;99327.97;5005729;28;105582;-81
2024/01/17 07:53:41;;;;;;;1.85;1.10;;;;;;;18.56;38.85;99330.59;4980385;28;118396;-82
2024/01/17 07:56:06;;;;;;;2.00;1.02;;;;;;;18.56;38.86;99329.75;4979106;28;96851;-82
2024/01/17 07:58:32;;;;;;;2.88;1.63;;;;;;;18.56;38.71;99329.75;4980501;28;96850;-82
2024/01/17 08:00:57;;;;;;;2.20;1.20;;;;;;;18.56;38.76;99322.69;4989718;28;111628;-81
2024/01/17 08:03:22;;;;;;;2.25;1.55;;;;;;;18.57;38.64;99318.25;4986674;28;96996;-81
2024/01/17 08:05:48;;;;;;;2.35;1.73;;;;;;;18.55;38.68;99305.09;4987952;28;96838;-81
2024/01/17 08:08:13;;;;;;;3.95;1.27;;;;;;;18.56;38.47;99303.34;4988230;28;106858;-81
2024/01/17 08:10:39;;;;;;;3.85;1.10;;;;;;;18.55;38.69;99310.38;4980262;28;125430;-81
2024/01/17 08:13:07;;;;;;;1.83;1.02;;;;;;;18.56;38.86;99309.47;4977953;28;97742;-81
2024/01/17 08:15:32;;;;;;;2.47;1.08;;;;;;;18.57;38.73;99302.41;4979737;28;96832;-82
2024/01/17 08:17:58;;;;;;;2.38;1.60;;;;;;;18.56;38.66;99291.00;4989852;28;98397;-81
2024/01/17 08:20:23;;;;;;;2.67;1.80;;;;;;;18.57;38.81;99289.19;4993330;28;99696;-81
2024/01/17 08:22:48;;;;;;;2.20;1.10;;;;;;;18.56;38.61;99285.72;4991180;28;108421;-81
2024/01/17 08:25:14;;;;;;;2.10;0.90;;;;;;;18.56;38.74;99291.00;5016868;27;96797;-81
2024/01/17 08:27:40;;;;;;;2.72;1.02;;;;;;;18.56;38.89;99279.59;4995044;28;99823;-81
2024/01/17 08:30:09;;;;;;;2.90;1.92;;;;;;;18.56;38.80;99266.38;4972521;28;97524;-82
2024/01/17 08:32:35;;;;;;;2.47;1.70;;;;;;;18.56;38.52;99261.09;4971571;28;97071;-81
2024/01/17 08:35:00;;;;;;;2.30;1.13;;;;;;;18.56;38.54;99259.31;4983497;28;99050;-81
2024/01/17 08:37:26;;;;;;;2.13;1.50;;;;;;;18.56;38.76;99258.47;4979969;28;97894;-81
2024/01/17 08:39:51;;;;;;;2.78;1.65;;;;;;;18.56;38.33;99250.53;4990545;28;97474;-81
2024/01/17 08:42:16;;;;;;;3.97;1.05;;;;;;;18.55;38.77;99260.22;4985734;28;117139;-81
2024/01/17 08:44:45;;;;;;;2.75;1.67;;;;;;;18.56;38.89;99258.47;4980789;28;97311;-81
2024/01/17 08:47:11;;;;;;;;;;;;;;;18.49;38.90;99252.59;4988105;28;97954;-81
2024/01/17 08:49:40;;;;;;;3.25;1.42;;;;;;;18.50;38.51;99254.28;4989064;28;99565;-81
2024/01/17 08:52:06;;;;;;;2.25;0.93;;;;;;;18.53;38.71;99248.03;4980852;28;97430;-81
2024/01/17 08:54:32;;;;;;;2.67;1.10;;;;;;;18.53;38.68;99238.31;4972181;28;96844;-81
2024/01/17 08:56:57;;;;;;;3.10;1.60;;;;;;;18.54;38.91;99231.25;5003760;28;100468;-82
2024/01/17 08:59:22;;;;;;;1.90;1.20;;;;;;;18.54;38.53;99229.50;4971662;28;101133;-82
2024/01/17 09:01:48;;;;;;;2.85;1.63;;;;;;;18.54;38.55;99226.84;4997409;28;96787;-81
2024/01/17 09:04:13;;;;;;;2.35;1.63;;;;;;;18.55;38.66;99225.91;4964263;28;96997;-82
2024/01/17 09:06:39;;;;;;;2.63;1.30;;;;;;;18.55;38.82;99227.69;4985365;28;97445;-82
2024/01/17 09:09:05;;;;;;;2.42;1.40;;;;;;;18.54;38.34;99216.28;4989166;28;97124;-82
2024/01/17 09:11:31;;;;;;;2.08;1.20;;;;;;;18.55;38.36;99214.50;4992435;28;96871;-81
2024/01/17 09:13:57;;;;;;;3.08;1.20;;;;;;;18.56;38.73;99213.56;4985645;28;99306;-82
2024/01/17 09:16:23;;;;;;;2.78;1.70;;;;;;;18.56;38.34;99203.00;4988798;28;97705;-82
2024/01/17 09:18:48;;;;;;;2.10;1.13;;;;;;;18.57;38.44;99194.16;4990162;28;97112;-82
2024/01/17 09:21:14;;;;;;;2.72;1.60;;;;;;;18.56;38.49;99181.91;4983743;28;97136;-82
2024/01/17 09:23:39;;;;;;;2.58;1.17;;;;;;;18.56;38.44;99168.69;4971326;28;97359;-82
2024/01/17 09:26:05;;;;;;;2.20;1.48;;;;;;;18.56;38.47;99176.63;4974051;28;99854;-82
2024/01/17 09:28:31;;;;;;;2.85;1.27;;;;;;;18.56;38.66;99173.97;4984592;28;98555;-82
2024/01/17 09:30:56;;;;;;;3.50;1.27;;;;;;;18.56;38.37;99172.19;5005011;28;96764;-82
2024/01/17 09:33:21;;;;;;;2.72;1.08;;;;;;;18.56;38.59;99180.09;4967868;28;96984;-81
2024/01/17 09:35:48;;;;;;;3.17;1.25;;;;;;;18.56;38.40;99172.19;4967949;28;126257;-81
2024/01/17 09:38:14;;;;;;;2.40;1.60;;;;;;;18.56;38.57;99169.53;4971672;28;97885;-82
2024/01/17 09:40:39;;;;;;;2.97;1.23;;;;;;;18.58;38.67;99174.75;5004108;28;97505;-82
2024/01/17 09:43:06;;;;;;;2.30;1.30;;;;;;;18.57;38.54;99173.91;4996444;28;96858;-82
2024/01/17 09:45:32;;;;;;;2.75;1.30;;;;;;;18.58;38.51;99177.38;4979355;28;97034;-82
2024/01/17 09:48:00;;;;;;;3.20;1.42;;;;;;;18.57;38.37;99168.63;4974216;28;99565;-82
2024/01/17 09:50:26;;;;;;;2.35;1.13;;;;;;;18.58;38.45;99175.59;4996991;28;97225;-82
2024/01/17 09:52:54;;;;;;;2.28;1.20;;;;;;;18.59;38.58;99179.09;4990150;28;97192;-82
2024/01/17 09:55:21;;;;;;;2.67;1.73;;;;;;;18.58;38.48;99172.97;4987468;28;98571;-82
2024/01/17 09:57:56;;;;;;;3.25;1.35;;;;;;;18.58;38.58;99169.47;4985469;28;97720;-81
2024/01/17 10:00:22;;;;;;;3.25;1.33;;;;;;;18.57;38.45;99155.41;5014443;28;97462;-82
2024/01/17 10:02:49;;;;;;;1.80;1.02;;;;;;;18.58;38.25;99169.47;4989321;28;96802;-82
2024/01/17 10:05:16;;;;;;;2.40;1.63;;;;;;;18.57;38.58;99168.63;4984811;28;97488;-81
2024/01/17 10:07:41;;;;;;;2.55;1.67;;;;;;;18.59;38.53;99163.25;4969759;28;100051;-81
2024/01/17 10:10:07;;;;;;;2.40;1.40;;;;;;;18.59;38.40;99160.59;4994283;28;104658;-81
2024/01/17 10:12:33;;;;;;;2.47;1.33;;;;;;;18.58;38.45;99153.63;4980265;28;97047;-82
2024/01/17 10:15:00;;;;;;;2.83;1.60;;;;;;;18.59;38.17;99142.13;4981663;28;96853;-82
2024/01/17 10:17:26;;;;;;;2.88;1.50;;;;;;;18.57;38.21;99139.56;4970672;28;99711;-81
2024/01/17 10:19:51;;;;;;;3.03;1.70;;;;;;;18.58;38.34;99141.28;4994170;28;118625;-82
2024/01/17 10:22:19;;;;;;;2.20;1.25;;;;;;;18.59;38.42;99131.56;5001725;27;116902;-81
2024/01/17 10:24:44;;;;;;;3.53;1.63;;;;;;;18.58;38.46;99130.72;4977836;28;98024;-81
2024/01/17 10:27:10;;;;;;;3.15;1.88;;;;;;;18.59;38.25;99132.44;5003167;28;97672;-81
2024/01/17 10:29:39;;;;;;;2.40;0.93;;;;;;;18.59;38.56;99121.00;4980990;28;101427;-81
2024/01/17 10:32:05;;;;;;;2.72;1.60;;;;;;;18.60;38.27;99122.72;4969883;28;96841;-81
2024/01/17 10:34:31;;;;;;;3.65;1.23;;;;;;;18.58;38.33;99109.59;5001916;28;97952;-81
2024/01/17 10:36:56;;;;;;;2.30;1.13;;;;;;;18.59;38.11;99103.38;4976729;28;98161;-81
2024/01/17 10:39:23;;;;;;;3.00;1.30;;;;;;;18.59;38.19;99106.03;5009746;27;97385;-82
2024/01/17 10:41:50;;;;;;;2.20;1.17;;;;;;;18.59;38.23;99105.16;4998757;28;96992;-81
2024/01/17 10:44:20;;;;;;;2.45;1.48;;;;;;;18.60;38.25;99106.88;4984865;28;97388;-81
2024/01/17 10:46:53;;;;;;;3.38;1.67;;;;;;;18.59;38.24;99099.88;4975102;28;99943;-81
2024/01/17 10:49:20;;;;;;;2.88;1.60;;;;;;;18.58;38.30;99101.66;4981730;28;96692;-81
2024/01/17 10:51:55;;;;;;;4.07;2.00;;;;;;;18.57;38.06;99097.34;4976521;28;96764;-81
2024/01/17 10:54:27;;;;;;;4.38;1.63;;;;;;;18.58;37.97;99099.03;4972144;28;96863;-81
2024/01/17 10:56:54;;;;;;;3.17;1.33;;;;;;;18.57;38.38;99086.78;5005439;27;96819;-81
2024/01/17 10:59:20;;;;;;;2.20;1.23;;;;;;;18.59;37.92;99089.31;5003013;28;96783;-82
2024/01/17 11:01:50;;;;;;;3.17;1.88;;;;;;;18.58;38.17;99077.06;4990905;28;97275;-81
2024/01/17 11:04:37;;;;;;;3.47;1.30;;;;;;;18.58;38.22;99072.63;4980807;28;96696;-81
2024/01/17 11:07:03;;;;;;;2.80;1.23;;;;;;;18.58;38.02;99069.13;4984930;28;96840;-81
2024/01/17 11:09:29;;;;;;;3.17;1.90;;;;;;;18.58;38.12;99069.97;4972368;28;97279;-81
2024/01/17 11:11:57;;;;;;;2.25;1.17;;;;;;;18.59;38.00;99060.25;5001384;28;97735;-81
2024/01/17 11:14:23;;;;;;;2.22;1.40;;;;;;;18.58;38.23;99054.13;4990389;28;96801;-81
2024/01/17 11:16:51;;;;;;;2.63;1.23;;;;;;;18.58;38.18;99046.22;4984470;28;99835;-82
2024/01/17 11:19:19;;;;;;;2.70;1.40;;;;;;;18.59;38.05;99049.69;4980219;28;96706;-81
2024/01/17 11:21:45;;;;;;;2.63;1.77;;;;;;;18.59;38.04;99045.31;4995587;28;97029;-81
2024/01/17 11:24:30;;;;;;;2.30;1.23;;;;;;;18.59;38.31;99036.50;4972439;28;98022;-82
2024/01/17 11:27:09;;;;;;;2.45;1.25;;;;;;;18.57;38.01;99041.00;5000933;28;97702;-81